Time;durP1;ratioP1;P1;durP2;ratioP2;P2;SDS_P1;SDS_P2;PMS_P1;PMS_P2;Temp;Humidity;BMP_temperature;BMP_pressure;BME280_temperature;BME280_humidity;BME280_pressure;Samples;Min_cycle;Max_cycle;Signal;HPM_P1;HPM_P2
2022/07/26 00:01:57;;;;;;;6.07;1.73;;;19.90;99.90;;;;;;5039624;28;20044;-61
2022/07/26 00:04:23;;;;;;;4.35;1.23;;;19.90;99.90;;;;;;5028637;28;20014;-61
2022/07/26 00:06:48;;;;;;;4.60;1.50;;;19.80;99.90;;;;;;5032111;28;20428;-61
2022/07/26 00:09:14;;;;;;;5.28;1.50;;;19.70;99.90;;;;;;5031922;28;20013;-61
2022/07/26 00:11:40;;;;;;;6.47;1.73;;;19.60;99.90;;;;;;5030150;28;20021;-60
2022/07/26 00:14:06;;;;;;;7.07;1.63;;;19.50;99.90;;;;;;5029778;28;20025;-60
2022/07/26 00:16:32;;;;;;;5.13;1.70;;;19.50;99.90;;;;;;5032616;28;20520;-60
2022/07/26 00:18:58;;;;;;;7.70;1.92;;;19.40;99.90;;;;;;5039646;28;20022;-61
2022/07/26 00:21:24;;;;;;;6.72;2.20;;;19.30;99.90;;;;;;5034350;28;20187;-60
2022/07/26 00:23:49;;;;;;;9.95;1.88;;;19.20;99.90;;;;;;5028298;28;20021;-60
2022/07/26 00:26:15;;;;;;;8.35;2.17;;;19.20;99.90;;;;;;5030115;28;20106;-60
2022/07/26 00:28:41;;;;;;;6.80;2.20;;;19.10;99.90;;;;;;5027029;28;20477;-61
2022/07/26 00:31:07;;;;;;;5.75;1.70;;;19.20;99.90;;;;;;5038775;28;20036;-60
2022/07/26 00:33:33;;;;;;;5.38;1.60;;;19.30;99.90;;;;;;5031209;28;20032;-60
2022/07/26 00:36:00;;;;;;;4.53;1.90;;;19.40;99.90;;;;;;5036032;28;20389;-61
2022/07/26 00:38:25;;;;;;;6.18;1.92;;;19.50;99.90;;;;;;5025864;28;20983;-61
2022/07/26 00:40:51;;;;;;;5.95;1.73;;;19.40;99.90;;;;;;5032628;28;20029;-61
2022/07/26 00:43:16;;;;;;;3.90;1.60;;;19.40;99.90;;;;;;5027453;28;20117;-61
2022/07/26 00:45:42;;;;;;;6.50;1.85;;;19.30;99.90;;;;;;5033277;28;20086;-60
2022/07/26 00:48:08;;;;;;;6.30;1.67;;;19.40;99.90;;;;;;5031522;28;20020;-60
2022/07/26 00:50:34;;;;;;;4.40;1.65;;;19.30;99.90;;;;;;5028640;28;20036;-61
2022/07/26 00:53:00;;;;;;;5.30;1.95;;;19.20;99.90;;;;;;5025263;28;20025;-61
2022/07/26 00:55:27;;;;;;;5.00;2.00;;;19.30;99.90;;;;;;5032180;28;20045;-61
2022/07/26 00:57:53;;;;;;;5.43;1.48;;;19.40;99.90;;;;;;5029849;28;20571;-61
2022/07/26 01:00:21;;;;;;;7.07;1.90;;;19.20;99.90;;;;;;5028556;28;20021;-61
2022/07/26 01:02:50;;;;;;;6.80;1.90;;;19.30;99.90;;;;;;5036318;28;20029;-61
2022/07/26 01:05:16;;;;;;;5.78;1.98;;;19.40;99.90;;;;;;5028980;28;20033;-61
2022/07/26 01:07:43;;;;;;;10.60;2.47;;;19.50;99.90;;;;;;5028427;28;20253;-60
2022/07/26 01:10:11;;;;;;;6.97;1.95;;;19.40;99.90;;;;;;5039232;28;20033;-60
2022/07/26 01:12:38;;;;;;;5.20;1.80;;;19.40;99.90;;;;;;5037592;28;20493;-60
2022/07/26 01:15:04;;;;;;;6.10;1.95;;;19.40;99.90;;;;;;5027274;28;20037;-60
2022/07/26 01:17:30;;;;;;;9.60;2.13;;;19.40;99.90;;;;;;5038606;28;20408;-60
2022/07/26 01:19:55;;;;;;;4.78;1.80;;;19.50;99.90;;;;;;5026229;28;20075;-60
2022/07/26 01:22:21;;;;;;;6.28;2.08;;;19.50;99.90;;;;;;5029376;28;20516;-60
2022/07/26 01:24:47;;;;;;;7.65;2.15;;;19.40;99.90;;;;;;5030446;28;20075;-60
2022/07/26 01:27:12;;;;;;;7.13;2.30;;;19.60;99.90;;;;;;5033537;28;20017;-61
2022/07/26 01:29:38;;;;;;;6.43;1.90;;;19.50;99.90;;;;;;5029897;28;20753;-61
2022/07/26 01:32:04;;;;;;;7.43;1.83;;;19.40;99.90;;;;;;5035786;28;20532;-61
2022/07/26 01:34:30;;;;;;;8.55;2.00;;;19.40;99.90;;;;;;5024596;28;20041;-60
2022/07/26 01:36:56;;;;;;;7.65;1.88;;;19.40;99.90;;;;;;5027985;28;20037;-61
2022/07/26 01:39:22;;;;;;;8.52;2.08;;;19.40;99.90;;;;;;5026623;28;20116;-61
2022/07/26 01:41:47;;;;;;;6.28;1.90;;;19.30;99.90;;;;;;5029238;28;20933;-61
2022/07/26 01:44:13;;;;;;;9.50;2.17;;;19.20;99.90;;;;;;5035746;28;20087;-61
2022/07/26 01:46:39;;;;;;;7.38;2.33;;;19.30;99.90;;;;;;5029623;28;20028;-61
2022/07/26 01:49:07;;;;;;;5.40;2.13;;;19.40;99.90;;;;;;5024505;28;20237;-60
2022/07/26 01:51:33;;;;;;;5.65;2.08;;;19.50;99.90;;;;;;5028607;28;20031;-61
2022/07/26 01:53:59;;;;;;;7.13;1.77;;;19.70;99.90;;;;;;5028815;28;20372;-61
2022/07/26 01:56:24;;;;;;;6.80;1.70;;;19.60;99.90;;;;;;5025708;28;20036;-60
2022/07/26 01:58:50;;;;;;;6.55;1.80;;;19.60;99.90;;;;;;5029815;28;20423;-61
2022/07/26 02:01:16;;;;;;;10.40;2.05;;;19.60;99.90;;;;;;5029624;28;20087;-60
2022/07/26 02:03:41;;;;;;;8.15;1.88;;;19.60;99.90;;;;;;5027484;28;20079;-60
2022/07/26 02:06:07;;;;;;;4.82;1.70;;;19.60;99.90;;;;;;5023792;28;20033;-61
2022/07/26 02:08:32;;;;;;;6.57;1.73;;;19.50;99.90;;;;;;5028329;28;20043;-61
2022/07/26 02:11:01;;;;;;;11.13;1.63;;;19.40;99.90;;;;;;5025515;28;20049;-61
2022/07/26 02:13:38;;;;;;;5.78;1.55;;;19.50;99.90;;;;;;5033717;28;20491;-61
2022/07/26 02:16:05;;;;;;;5.47;1.70;;;19.50;99.90;;;;;;5024982;28;20038;-60
2022/07/26 02:18:31;;;;;;;5.10;1.75;;;19.30;99.90;;;;;;5036122;28;20040;-59
2022/07/26 02:20:59;;;;;;;7.78;2.08;;;19.40;99.90;;;;;;5024463;28;20422;-61
2022/07/26 02:23:25;;;;;;;7.60;1.88;;;19.40;99.90;;;;;;5033794;28;20075;-61
2022/07/26 02:25:51;;;;;;;7.50;1.90;;;19.60;99.90;;;;;;5028908;28;20021;-60
2022/07/26 02:28:17;;;;;;;9.23;2.25;;;19.40;99.90;;;;;;5026409;28;20030;-61
2022/07/26 02:30:44;;;;;;;8.25;1.90;;;19.40;99.90;;;;;;5030465;28;20052;-61
2022/07/26 02:33:09;;;;;;;6.65;2.03;;;19.50;99.90;;;;;;5027745;28;20501;-61
2022/07/26 02:35:35;;;;;;;8.52;2.20;;;19.50;99.90;;;;;;5027355;28;20021;-61
2022/07/26 02:38:05;;;;;;;10.93;2.08;;;19.60;99.90;;;;;;5026007;28;20025;-61
2022/07/26 02:40:32;;;;;;;9.82;2.15;;;19.60;99.90;;;;;;5028744;28;20029;-61
2022/07/26 02:42:58;;;;;;;11.68;2.47;;;19.70;99.90;;;;;;5028381;28;20029;-60
2022/07/26 02:45:24;;;;;;;9.57;2.72;;;19.60;99.90;;;;;;5032339;28;20429;-61
2022/07/26 02:47:51;;;;;;;10.73;2.33;;;19.60;99.90;;;;;;5025577;28;20037;-61
2022/07/26 02:50:19;;;;;;;7.53;2.10;;;19.70;99.90;;;;;;5027662;28;20057;-61
2022/07/26 02:52:46;;;;;;;9.50;2.10;;;19.50;99.90;;;;;;5026620;28;20044;-61
2022/07/26 02:55:16;;;;;;;5.97;1.60;;;19.50;99.90;;;;;;5028774;28;20029;-61
2022/07/26 02:57:42;;;;;;;7.32;1.80;;;19.60;99.90;;;;;;5029013;28;20037;-61
2022/07/26 03:00:10;;;;;;;8.27;2.30;;;19.60;99.90;;;;;;5028848;28;20508;-60
2022/07/26 03:02:36;;;;;;;9.80;1.77;;;19.40;99.90;;;;;;5026595;28;20022;-61
2022/07/26 03:05:04;;;;;;;9.25;2.25;;;19.60;99.90;;;;;;5027593;28;20171;-60
2022/07/26 03:07:29;;;;;;;8.55;2.13;;;19.70;99.90;;;;;;5026829;28;20091;-61
2022/07/26 03:09:55;;;;;;;8.82;1.95;;;19.70;99.90;;;;;;5027650;28;20033;-61
2022/07/26 03:12:20;;;;;;;9.95;2.35;;;19.60;99.90;;;;;;5029432;28;20071;-60
2022/07/26 03:14:46;;;;;;;10.20;2.25;;;19.50;99.90;;;;;;5027894;28;20037;-61
2022/07/26 03:17:12;;;;;;;8.00;2.17;;;19.50;99.90;;;;;;5033941;28;20036;-61
2022/07/26 03:19:37;;;;;;;7.25;2.20;;;19.50;99.90;;;;;;5032067;28;20021;-60
2022/07/26 03:22:03;;;;;;;8.45;2.10;;;19.30;99.90;;;;;;5031697;28;20036;-60
2022/07/26 03:24:28;;;;;;;9.63;2.10;;;19.40;99.90;;;;;;5031082;28;20049;-60
2022/07/26 03:26:54;;;;;;;7.05;2.03;;;19.30;99.90;;;;;;5031917;28;20393;-61
2022/07/26 03:29:19;;;;;;;7.63;2.17;;;19.40;99.90;;;;;;5030063;28;20021;-61
2022/07/26 03:31:45;;;;;;;5.90;1.88;;;19.30;99.90;;;;;;5037502;28;20029;-61
2022/07/26 03:34:10;;;;;;;7.38;2.00;;;19.40;99.90;;;;;;5027732;28;20030;-61
2022/07/26 03:36:36;;;;;;;7.07;1.88;;;19.30;99.90;;;;;;5031196;28;20037;-61
2022/07/26 03:39:02;;;;;;;10.90;2.53;;;19.20;99.90;;;;;;5028268;28;20064;-60
2022/07/26 03:41:30;;;;;;;8.68;2.38;;;19.30;99.90;;;;;;5038117;28;20036;-60
2022/07/26 03:43:56;;;;;;;6.88;2.10;;;19.40;99.90;;;;;;5026383;28;20681;-60
2022/07/26 03:46:22;;;;;;;11.88;2.30;;;19.50;99.90;;;;;;5030920;28;20025;-60
2022/07/26 03:48:47;;;;;;;12.00;2.78;;;19.40;99.90;;;;;;5027103;28;20029;-60
2022/07/26 03:51:13;;;;;;;6.03;2.03;;;19.40;99.90;;;;;;5031220;28;20037;-61
2022/07/26 03:53:38;;;;;;;15.18;2.70;;;19.40;99.90;;;;;;5031265;28;20043;-61
2022/07/26 03:58:48;;;;;;;11.20;2.30;;;19.20;99.90;;;;;;5032187;28;20090;-60
2022/07/26 04:01:14;;;;;;;9.55;2.75;;;19.20;99.90;;;;;;5036781;28;20465;-60
2022/07/26 04:03:39;;;;;;;9.95;2.25;;;19.10;99.90;;;;;;5030198;28;20674;-60
2022/07/26 04:06:05;;;;;;;10.40;2.42;;;19.10;99.90;;;;;;5027981;28;20044;-61
2022/07/26 04:08:31;;;;;;;9.18;2.28;;;19.10;99.90;;;;;;5031075;28;20048;-60
2022/07/26 04:10:56;;;;;;;8.95;2.55;;;19.10;99.90;;;;;;5028197;28;20393;-60
2022/07/26 04:13:22;;;;;;;8.10;2.28;;;19.10;99.90;;;;;;5035885;28;20443;-60
2022/07/26 04:15:48;;;;;;;8.45;2.88;;;19.10;99.90;;;;;;5029813;28;20029;-61
2022/07/26 04:18:14;;;;;;;7.75;2.50;;;19.20;99.90;;;;;;5039850;28;20017;-60
2022/07/26 04:20:41;;;;;;;14.50;2.72;;;19.30;99.90;;;;;;5027596;28;20025;-60
2022/07/26 04:23:06;;;;;;;7.28;2.40;;;19.20;99.90;;;;;;5033065;28;20401;-59
2022/07/26 04:25:33;;;;;;;8.88;2.70;;;19.10;99.90;;;;;;5031045;28;20194;-60
2022/07/26 04:27:59;;;;;;;12.20;2.53;;;19.20;99.90;;;;;;5031492;28;20025;-61
2022/07/26 04:30:25;;;;;;;10.10;2.50;;;19.10;99.90;;;;;;5026188;28;20059;-61
2022/07/26 04:32:50;;;;;;;11.52;2.20;;;19.10;99.90;;;;;;5030007;28;20485;-61
2022/07/26 04:35:16;;;;;;;9.60;2.50;;;19.00;99.90;;;;;;5031783;28;20025;-60
2022/07/26 04:37:43;;;;;;;8.77;2.30;;;19.10;99.90;;;;;;5039984;28;20057;-61
2022/07/26 04:40:11;;;;;;;11.98;2.72;;;19.10;99.90;;;;;;5040794;28;20082;-60
2022/07/26 04:42:37;;;;;;;9.90;2.35;;;18.90;99.90;;;;;;5028324;28;20025;-60
2022/07/26 04:45:04;;;;;;;11.20;2.22;;;19.00;99.90;;;;;;5040254;28;20177;-61
2022/07/26 04:47:29;;;;;;;10.18;2.58;;;19.00;99.90;;;;;;5031251;28;20787;-61
2022/07/26 04:49:55;;;;;;;10.27;2.33;;;19.10;99.90;;;;;;5030657;28;20075;-60
2022/07/26 04:52:21;;;;;;;7.07;2.42;;;19.10;99.90;;;;;;5027309;28;20697;-60
2022/07/26 04:54:46;;;;;;;9.52;2.47;;;19.10;99.90;;;;;;5031191;28;20029;-61
2022/07/26 04:57:12;;;;;;;9.90;2.80;;;19.20;99.90;;;;;;5031622;28;20026;-61
2022/07/26 04:59:38;;;;;;;14.15;3.10;;;19.10;99.90;;;;;;5027115;28;20025;-61
2022/07/26 05:02:04;;;;;;;9.70;3.03;;;19.10;99.90;;;;;;5031239;28;20048;-60
2022/07/26 05:04:29;;;;;;;10.35;2.47;;;19.10;99.90;;;;;;5030065;28;20056;-61
2022/07/26 05:07:01;;;;;;;12.57;2.97;;;19.20;99.90;;;;;;5026935;28;20342;-61
2022/07/26 05:09:27;;;;;;;8.25;2.33;;;19.10;99.90;;;;;;5035209;28;20038;-61
2022/07/26 05:11:52;;;;;;;8.65;2.40;;;19.20;99.90;;;;;;5027267;28;20026;-60
2022/07/26 05:14:18;;;;;;;13.48;3.03;;;19.00;99.90;;;;;;5030725;28;20025;-60
2022/07/26 05:16:43;;;;;;;11.20;3.13;;;19.10;99.90;;;;;;5029719;28;20075;-61
2022/07/26 05:19:09;;;;;;;12.05;2.60;;;19.20;99.90;;;;;;5036727;28;20092;-60
2022/07/26 05:21:34;;;;;;;11.98;2.95;;;19.30;99.90;;;;;;5030255;28;20013;-60
2022/07/26 05:24:00;;;;;;;11.60;3.08;;;19.30;99.90;;;;;;5030394;28;20025;-61
2022/07/26 05:26:26;;;;;;;10.63;3.20;;;19.30;99.90;;;;;;5026903;28;20028;-61
2022/07/26 05:28:51;;;;;;;12.38;2.67;;;19.50;99.90;;;;;;5031697;28;20036;-60
2022/07/26 05:31:17;;;;;;;10.98;2.70;;;19.30;99.90;;;;;;5028926;28;20048;-60
2022/07/26 05:33:42;;;;;;;13.93;3.30;;;19.20;99.90;;;;;;5030981;28;20158;-61
2022/07/26 05:36:08;;;;;;;14.50;3.28;;;19.10;99.90;;;;;;5034801;28;20035;-61
2022/07/26 05:38:34;;;;;;;11.52;3.25;;;19.10;99.90;;;;;;5030749;28;20030;-61
2022/07/26 05:40:59;;;;;;;11.45;3.10;;;19.20;99.90;;;;;;5024137;28;20100;-60
2022/07/26 05:43:26;;;;;;;10.35;2.92;;;19.50;99.90;;;;;;5029001;28;20112;-60
2022/07/26 05:45:52;;;;;;;13.32;3.88;;;19.40;99.90;;;;;;5030314;28;20017;-60
2022/07/26 05:48:17;;;;;;;13.38;3.15;;;19.30;99.90;;;;;;5029100;28;20052;-60
2022/07/26 05:50:43;;;;;;;9.40;2.83;;;19.40;99.90;;;;;;5030314;28;20033;-60
2022/07/26 05:53:09;;;;;;;11.70;3.35;;;19.50;99.90;;;;;;5030631;28;20025;-61
2022/07/26 05:55:34;;;;;;;16.45;3.70;;;19.60;99.90;;;;;;5046297;28;20415;-60
2022/07/26 05:58:00;;;;;;;13.73;3.72;;;19.50;99.90;;;;;;5026139;28;20033;-61
2022/07/26 06:00:25;;;;;;;12.73;3.67;;;19.60;99.90;;;;;;5031339;28;20033;-61
2022/07/26 06:02:51;;;;;;;19.55;3.70;;;19.50;99.90;;;;;;5030162;28;20024;-60
2022/07/26 06:05:16;;;;;;;12.88;3.70;;;19.50;99.90;;;;;;5030298;28;20465;-60
2022/07/26 06:07:42;;;;;;;15.68;3.50;;;19.70;99.90;;;;;;5026364;28;20033;-61
2022/07/26 06:10:08;;;;;;;12.35;3.70;;;19.70;99.90;;;;;;5036664;28;20021;-61
2022/07/26 06:12:34;;;;;;;10.07;3.40;;;19.60;99.90;;;;;;5032554;28;20561;-60
2022/07/26 06:14:59;;;;;;;12.75;3.60;;;19.50;99.90;;;;;;5030493;28;20112;-60
2022/07/26 06:17:28;;;;;;;12.63;3.80;;;19.60;99.90;;;;;;5038394;28;20037;-61
2022/07/26 06:19:57;;;;;;;10.98;3.83;;;19.90;99.90;;;;;;5032743;28;20029;-60
2022/07/26 06:22:23;;;;;;;15.27;4.13;;;19.90;99.90;;;;;;5037065;28;20021;-61
2022/07/26 06:24:48;;;;;;;19.85;3.88;;;20.00;99.90;;;;;;5031419;28;20021;-60
2022/07/26 06:27:14;;;;;;;13.70;4.05;;;19.90;99.90;;;;;;5024557;28;20017;-61
2022/07/26 06:29:39;;;;;;;10.27;3.72;;;20.00;99.90;;;;;;5029169;28;20056;-60
2022/07/26 06:32:05;;;;;;;11.52;3.75;;;19.90;99.90;;;;;;5031256;28;20372;-61
2022/07/26 06:34:31;;;;;;;19.08;4.00;;;20.00;99.90;;;;;;5030268;28;20034;-60
2022/07/26 06:36:57;;;;;;;12.55;3.97;;;20.10;99.90;;;;;;5030634;28;20032;-61
2022/07/26 06:39:23;;;;;;;11.60;3.45;;;20.00;99.90;;;;;;5026156;28;20036;-61
2022/07/26 06:41:48;;;;;;;12.30;3.47;;;20.00;99.90;;;;;;5028086;28;20388;-61
2022/07/26 06:44:14;;;;;;;12.70;3.63;;;20.00;99.90;;;;;;5025461;28;20083;-60
2022/07/26 06:46:54;;;;;;;14.93;3.75;;;20.10;99.90;;;;;;5007400;28;20476;-61
2022/07/26 06:49:20;;;;;;;12.10;3.70;;;20.20;99.90;;;;;;5027572;28;20021;-61
2022/07/26 06:51:46;;;;;;;14.20;4.07;;;20.30;99.90;;;;;;5033717;28;20025;-60
2022/07/26 06:54:11;;;;;;;15.30;4.40;;;20.20;99.90;;;;;;5027712;28;20030;-61
2022/07/26 06:56:37;;;;;;;14.27;3.88;;;20.10;99.90;;;;;;5039513;28;20087;-61
2022/07/26 06:59:03;;;;;;;16.42;3.97;;;20.10;99.90;;;;;;5028666;28;20040;-60
2022/07/26 07:01:28;;;;;;;17.80;4.05;;;20.30;99.90;;;;;;5040250;28;20037;-61
2022/07/26 07:03:54;;;;;;;13.98;3.85;;;20.10;99.90;;;;;;5032919;28;20112;-60
2022/07/26 07:06:19;;;;;;;15.63;4.00;;;20.20;99.90;;;;;;5030694;28;20452;-61
2022/07/26 07:08:47;;;;;;;14.90;3.97;;;20.40;99.90;;;;;;5027285;28;20124;-60
2022/07/26 07:11:13;;;;;;;11.02;3.53;;;20.50;99.90;;;;;;5031249;28;20029;-61
2022/07/26 07:13:38;;;;;;;16.38;3.78;;;20.60;99.90;;;;;;5033748;28;20025;-61
2022/07/26 07:16:04;;;;;;;13.88;3.90;;;20.60;99.90;;;;;;5031123;28;20222;-60
2022/07/26 07:18:31;;;;;;;14.55;3.95;;;20.80;99.90;;;;;;5046684;28;20025;-61
2022/07/26 07:20:56;;;;;;;11.05;3.75;;;20.80;99.90;;;;;;5030312;28;20040;-60
2022/07/26 07:23:22;;;;;;;13.52;3.80;;;20.90;99.90;;;;;;5028722;28;20026;-60
2022/07/26 07:25:48;;;;;;;14.05;3.88;;;20.90;99.90;;;;;;5030203;28;20104;-61
2022/07/26 07:28:14;;;;;;;18.27;4.20;;;20.80;99.90;;;;;;5031817;28;20440;-61
2022/07/26 07:30:40;;;;;;;14.27;4.03;;;20.80;99.90;;;;;;5030982;28;20625;-60
2022/07/26 07:33:08;;;;;;;13.15;4.05;;;20.90;99.90;;;;;;5036826;28;20044;-61
2022/07/26 07:35:34;;;;;;;9.88;3.33;;;20.90;99.90;;;;;;5029664;28;20025;-61
2022/07/26 07:37:59;;;;;;;13.30;3.92;;;21.10;99.90;;;;;;5034562;28;20252;-61
2022/07/26 07:40:25;;;;;;;13.57;3.33;;;21.20;99.90;;;;;;5027370;28;20033;-60
2022/07/26 07:42:50;;;;;;;17.13;3.85;;;21.30;99.90;;;;;;5034149;28;20026;-60
2022/07/26 07:45:16;;;;;;;8.85;3.70;;;21.50;99.90;;;;;;5028936;28;20638;-61
2022/07/26 07:47:42;;;;;;;19.08;4.57;;;21.30;99.90;;;;;;5036218;28;20017;-60
2022/07/26 07:50:08;;;;;;;13.30;3.78;;;21.40;99.90;;;;;;5027040;28;20022;-61
2022/07/26 07:52:33;;;;;;;9.57;3.17;;;21.50;99.90;;;;;;5038381;28;20113;-61
2022/07/26 07:54:59;;;;;;;10.23;3.20;;;21.80;99.90;;;;;;5028448;28;20024;-60
2022/07/26 07:57:24;;;;;;;16.88;3.50;;;21.90;99.90;;;;;;5039530;28;20473;-60
2022/07/26 07:59:50;;;;;;;10.02;3.22;;;22.10;99.90;;;;;;5050597;28;20027;-61
2022/07/26 08:02:15;;;;;;;14.13;4.18;;;22.10;99.90;;;;;;5037813;28;20601;-61
2022/07/26 08:04:41;;;;;;;12.57;3.95;;;22.10;99.90;;;;;;5032574;28;20455;-60
2022/07/26 08:07:06;;;;;;;13.75;4.00;;;21.90;99.90;;;;;;5033642;28;20044;-61
2022/07/26 08:09:32;;;;;;;10.48;3.35;;;21.90;99.90;;;;;;5029643;28;20013;-61
2022/07/26 08:11:57;;;;;;;10.38;3.72;;;22.10;99.90;;;;;;5029508;28;20402;-61
2022/07/26 08:14:23;;;;;;;13.85;3.78;;;22.20;99.90;;;;;;5033891;28;20104;-60
2022/07/26 08:16:49;;;;;;;12.93;3.97;;;22.30;99.90;;;;;;5034604;28;20022;-61
2022/07/26 08:19:14;;;;;;;14.43;3.75;;;22.10;99.90;;;;;;5041941;28;20025;-61
2022/07/26 08:21:41;;;;;;;11.75;3.35;;;22.00;99.90;;;;;;5029288;28;20030;-61
2022/07/26 08:24:07;;;;;;;12.63;3.47;;;22.10;99.90;;;;;;5036117;28;20037;-61
2022/07/26 08:26:33;;;;;;;8.20;3.17;;;22.00;99.90;;;;;;5030636;28;20029;-61
2022/07/26 08:28:58;;;;;;;10.45;3.70;;;21.80;99.90;;;;;;5030971;28;20026;-60
2022/07/26 08:31:24;;;;;;;9.85;3.55;;;21.60;99.90;;;;;;5031809;28;20029;-61
2022/07/26 08:33:49;;;;;;;8.00;3.00;;;21.30;99.90;;;;;;5033540;28;20045;-60
2022/07/26 08:36:15;;;;;;;11.13;3.72;;;21.20;99.90;;;;;;5026182;28;20155;-60
2022/07/26 08:38:42;;;;;;;7.63;4.80;;;21.20;99.90;;;;;;5029920;28;20034;-61
2022/07/26 08:41:07;;;;;;;11.30;4.40;;;21.20;99.90;;;;;;5026909;28;20196;-61
2022/07/26 08:43:33;;;;;;;12.98;6.10;;;21.50;99.90;;;;;;5032939;28;20614;-61
2022/07/26 08:46:01;;;;;;;12.15;5.15;;;21.30;99.90;;;;;;5032841;28;20085;-60
2022/07/26 08:48:26;;;;;;;15.65;5.82;;;21.30;99.90;;;;;;5033085;28;20513;-61
2022/07/26 08:50:54;;;;;;;9.90;5.43;;;21.30;99.90;;;;;;5025628;28;20052;-61
2022/07/26 08:53:20;;;;;;;13.55;5.80;;;21.30;99.90;;;;;;5030487;28;20061;-60
2022/07/26 08:55:46;;;;;;;12.07;5.22;;;21.20;99.90;;;;;;5030032;28;20116;-60
2022/07/26 08:58:11;;;;;;;14.10;5.45;;;21.10;99.90;;;;;;5027641;28;20108;-61
2022/07/26 09:00:37;;;;;;;11.45;5.55;;;21.40;99.90;;;;;;5035581;28;20089;-61
2022/07/26 09:03:03;;;;;;;9.38;4.78;;;21.40;99.90;;;;;;5030298;28;20025;-61
2022/07/26 09:05:38;;;;;;;11.07;5.43;;;21.60;99.90;;;;;;5027823;28;20025;-61
2022/07/26 09:08:28;;;;;;;9.95;5.10;;;21.50;99.90;;;;;;5028592;28;20032;-60
2022/07/26 09:10:54;;;;;;;12.35;4.72;;;21.20;99.90;;;;;;5029832;28;20387;-61
2022/07/26 09:13:22;;;;;;;10.65;4.88;;;21.20;99.90;;;;;;5032679;28;20559;-60
2022/07/26 09:15:47;;;;;;;11.73;4.75;;;21.10;99.90;;;;;;5033301;28;20124;-60
2022/07/26 09:18:27;;;;;;;10.65;4.75;;;21.10;99.90;;;;;;5036799;28;20550;-61
2022/07/26 09:20:54;;;;;;;10.70;4.03;;;21.20;99.90;;;;;;5039069;28;20083;-61
2022/07/26 09:23:19;;;;;;;6.88;4.15;;;21.40;99.90;;;;;;5035772;28;20029;-60
2022/07/26 09:25:45;;;;;;;9.88;4.18;;;21.50;99.90;;;;;;5037199;28;20022;-61
2022/07/26 09:28:23;;;;;;;11.32;4.28;;;21.70;99.90;;;;;;5033333;28;20040;-61
2022/07/26 09:30:53;;;;;;;9.40;3.17;;;21.80;99.90;;;;;;5032046;28;20038;-61
2022/07/26 09:33:19;;;;;;;7.82;3.13;;;22.20;99.90;;;;;;5035416;28;20102;-61
2022/07/26 09:35:59;;;;;;;8.52;3.22;;;22.20;99.90;;;;;;5028638;28;20029;-61
2022/07/26 09:38:36;;;;;;;7.72;2.40;;;22.50;99.90;;;;;;5037275;28;20037;-61
2022/07/26 09:41:02;;;;;;;5.70;2.10;;;22.80;99.90;;;;;;5025990;28;20021;-61
2022/07/26 09:43:36;;;;;;;3.85;1.55;;;22.90;99.90;;;;;;5032193;28;20029;-61
2022/07/26 09:46:05;;;;;;;8.13;2.28;;;23.20;99.90;;;;;;5031551;28;20033;-60
2022/07/26 09:48:31;;;;;;;8.50;2.15;;;23.30;99.90;;;;;;5028018;28;20033;-61
2022/07/26 09:50:57;;;;;;;6.60;2.05;;;23.40;99.90;;;;;;5029243;28;20067;-60
2022/07/26 09:53:22;;;;;;;3.83;1.83;;;23.60;99.90;;;;;;5030150;28;20029;-60
2022/07/26 09:55:48;;;;;;;5.90;1.70;;;23.80;99.90;;;;;;5028890;28;20033;-62
2022/07/26 09:58:15;;;;;;;9.68;1.88;;;23.90;99.90;;;;;;5026857;28;20091;-61
2022/07/26 10:00:41;;;;;;;6.32;1.85;;;23.50;99.90;;;;;;5035322;28;20414;-61
2022/07/26 10:03:07;;;;;;;4.95;1.90;;;23.60;99.90;;;;;;5028778;28;20227;-60
2022/07/26 10:05:34;;;;;;;4.18;1.40;;;23.70;99.90;;;;;;5027340;28;20028;-61
2022/07/26 10:08:00;;;;;;;7.80;1.85;;;23.60;99.90;;;;;;5026487;28;20496;-61
2022/07/26 10:10:44;;;;;;;4.65;1.70;;;23.40;99.90;;;;;;5029045;28;20037;-61
2022/07/26 10:13:09;;;;;;;10.85;2.35;;;22.90;99.90;;;;;;5027149;28;20473;-61
2022/07/26 10:15:49;;;;;;;5.80;1.60;;;22.30;99.90;;;;;;5033596;28;20089;-61
2022/07/26 10:18:37;;;;;;;4.10;1.80;;;21.70;99.90;;;;;;5049529;28;20038;-60
2022/07/26 10:21:20;;;;;;;5.13;2.03;;;21.50;99.90;;;;;;5028696;28;20609;-60
2022/07/26 10:23:51;;;;;;;3.38;1.83;;;20.80;99.90;;;;;;5041830;28;20463;-61
2022/07/26 10:26:31;;;;;;;4.97;1.90;;;20.80;99.90;;;;;;5042748;28;20083;-60
2022/07/26 10:29:18;;;;;;;9.75;1.90;;;20.80;99.90;;;;;;5033971;28;20022;-60
2022/07/26 10:31:59;;;;;;;5.22;1.95;;;20.30;99.90;;;;;;5035064;28;20056;-60
2022/07/26 10:34:33;;;;;;;3.60;1.77;;;20.30;99.90;;;;;;5035996;28;20060;-60
2022/07/26 10:37:02;;;;;;;5.45;1.95;;;20.10;99.90;;;;;;5029093;28;20345;-60
2022/07/26 10:39:27;;;;;;;2.80;1.63;;;19.70;99.90;;;;;;5035048;28;20422;-61
2022/07/26 10:42:02;;;;;;;6.38;1.80;;;19.80;99.90;;;;;;5046936;28;20032;-61
2022/07/26 10:44:32;;;;;;;2.38;1.50;;;19.70;99.90;;;;;;5030796;28;20025;-60
2022/07/26 10:47:07;;;;;;;4.90;1.85;;;19.80;99.90;;;;;;5028436;28;20475;-61
2022/07/26 10:49:40;;;;;;;2.08;1.10;;;19.80;99.90;;;;;;5033085;28;20017;-61
2022/07/26 10:52:15;;;;;;;1.58;0.90;;;20.00;99.90;;;;;;5032284;28;20025;-60
2022/07/26 10:54:56;;;;;;;1.85;0.98;;;20.20;99.90;;;;;;5032616;28;20561;-61
2022/07/26 10:57:42;;;;;;;1.40;0.90;;;20.30;99.90;;;;;;5038048;28;20116;-61
2022/07/26 11:00:16;;;;;;;2.10;0.90;;;20.40;99.90;;;;;;5027689;28;20021;-61
2022/07/26 11:02:46;;;;;;;2.83;0.80;;;20.50;99.90;;;;;;5037106;28;20462;-61
2022/07/26 11:05:16;;;;;;;2.28;0.80;;;20.40;99.90;;;;;;5027999;28;20036;-60
2022/07/26 11:08:08;;;;;;;1.65;0.70;;;20.10;99.90;;;;;;5029090;28;20393;-60
2022/07/26 11:10:41;;;;;;;1.48;0.80;;;20.20;99.90;;;;;;5032877;28;20021;-61
2022/07/26 11:13:16;;;;;;;2.10;1.00;;;20.30;99.90;;;;;;5033564;28;20425;-60
2022/07/26 11:15:45;;;;;;;1.70;0.90;;;20.20;99.90;;;;;;5032107;28;20522;-60
2022/07/26 11:18:34;;;;;;;2.35;0.70;;;20.50;99.90;;;;;;5041786;28;20031;-61
2022/07/26 11:21:16;;;;;;;1.45;0.70;;;20.60;99.90;;;;;;5032067;28;20029;-60
2022/07/26 11:23:46;;;;;;;1.42;0.60;;;20.90;99.90;;;;;;5044541;28;20028;-61
2022/07/26 11:26:33;;;;;;;1.75;0.52;;;21.10;99.90;;;;;;5030308;28;20040;-61
2022/07/26 11:29:01;;;;;;;0.88;0.50;;;21.20;99.90;;;;;;5034457;28;20028;-61
2022/07/26 11:31:37;;;;;;;0.73;0.50;;;21.20;99.90;;;;;;5038361;28;20424;-61
2022/07/26 11:34:03;;;;;;;1.08;0.63;;;21.40;99.90;;;;;;5030963;28;20102;-60
2022/07/26 11:36:43;;;;;;;2.05;0.47;;;21.40;99.90;;;;;;5028210;28;20473;-61
2022/07/26 11:39:14;;;;;;;0.80;0.30;;;21.10;99.90;;;;;;5034380;28;20039;-61
2022/07/26 11:41:41;;;;;;;1.13;0.50;;;21.20;99.90;;;;;;5033452;28;20040;-61
2022/07/26 11:44:18;;;;;;;0.85;0.43;;;21.10;99.90;;;;;;5032152;28;20021;-61
2022/07/26 11:46:47;;;;;;;0.77;0.50;;;21.20;99.90;;;;;;5028329;28;20639;-60
2022/07/26 11:49:18;;;;;;;1.17;0.60;;;21.30;99.90;;;;;;5031532;28;20627;-61
2022/07/26 11:52:00;;;;;;;0.57;0.40;;;21.20;99.90;;;;;;5035460;28;20094;-61
2022/07/26 11:54:29;;;;;;;0.40;0.32;;;21.60;99.90;;;;;;5032003;28;20493;-60
2022/07/26 11:56:56;;;;;;;1.35;0.43;;;21.80;99.90;;;;;;5039543;28;20053;-61
2022/07/26 11:59:24;;;;;;;1.38;0.35;;;21.70;99.90;;;;;;5030212;28;20053;-61
2022/07/26 12:01:51;;;;;;;0.40;0.40;;;21.70;99.90;;;;;;5046701;28;20033;-61
2022/07/26 12:04:31;;;;;;;1.30;0.45;;;21.80;99.90;;;;;;5029477;28;20014;-61
2022/07/26 12:06:59;;;;;;;1.90;0.40;;;21.70;99.90;;;;;;5031171;28;20100;-60
2022/07/26 12:09:36;;;;;;;1.30;0.55;;;22.00;99.90;;;;;;5030511;28;20079;-61
2022/07/26 12:12:04;;;;;;;1.65;0.60;;;21.70;99.90;;;;;;5031011;28;20142;-60
2022/07/26 12:14:38;;;;;;;3.08;0.43;;;21.70;99.90;;;;;;5026417;28;20014;-61
2022/07/26 12:17:15;;;;;;;1.10;0.50;;;21.80;99.90;;;;;;5036366;28;20016;-61
2022/07/26 12:19:42;;;;;;;1.92;0.57;;;21.90;99.90;;;;;;5040818;28;20437;-61
2022/07/26 12:22:10;;;;;;;1.58;0.40;;;21.80;99.90;;;;;;5029493;28;20104;-60
2022/07/26 12:24:46;;;;;;;1.38;0.40;;;21.60;99.90;;;;;;5039035;28;20473;-61
2022/07/26 12:27:18;;;;;;;0.60;0.50;;;21.90;99.90;;;;;;5031770;28;20025;-60
2022/07/26 12:29:55;;;;;;;1.45;0.47;;;21.90;99.90;;;;;;5029934;28;20401;-61
2022/07/26 12:32:36;;;;;;;0.73;0.50;;;22.40;99.90;;;;;;5031484;28;20045;-61
2022/07/26 12:35:03;;;;;;;3.33;0.70;;;22.30;99.90;;;;;;5036385;28;20025;-61
2022/07/26 12:37:33;;;;;;;1.42;0.47;;;22.50;99.90;;;;;;5030423;28;20029;-61
2022/07/26 12:40:00;;;;;;;0.68;0.47;;;22.30;99.90;;;;;;5031491;28;20041;-61
2022/07/26 12:42:29;;;;;;;1.05;0.57;;;22.30;99.90;;;;;;5025896;28;20048;-61
2022/07/26 12:44:55;;;;;;;1.60;0.68;;;22.40;99.90;;;;;;5029746;28;20424;-60
2022/07/26 12:47:21;;;;;;;1.00;0.50;;;22.30;99.90;;;;;;5036799;28;20033;-61
2022/07/26 12:49:47;;;;;;;1.77;0.70;;;22.50;99.90;;;;;;5034192;28;20399;-61